Time;durP1;ratioP1;P1;durP2;ratioP2;P2;SDS_P1;SDS_P2;PMS_P1;PMS_P2;Temp;Humidity;BMP_temperature;BMP_pressure;BME280_temperature;BME280_humidity;BME280_pressure;Samples;Min_cycle;Max_cycle;Signal;HPM_P1;HPM_P2
2022/04/20 00:00:08;;;;;;;;;;;22.50;34.40;;;;;;678200;29;842;-90
2022/04/20 00:00:28;;;;;;;;;;;22.50;34.90;;;;;;677734;29;1288;-90
2022/04/20 00:00:50;;;;;;;;;;;22.50;35.00;;;;;;675522;29;836;-89
2022/04/20 00:01:11;;;;;;;;;;;22.60;33.30;;;;;;675960;29;1270;-89
2022/04/20 00:01:31;;;;;;;;;;;22.60;35.60;;;;;;678105;29;1302;-88
2022/04/20 00:01:52;;;;;;;;;;;22.60;33.70;;;;;;680729;29;816;-87
2022/04/20 00:02:13;;;;;;;;;;;22.50;33.90;;;;;;683489;29;771;-88
2022/04/20 00:02:33;;;;;;;;;;;22.50;34.10;;;;;;683459;29;823;-88
2022/04/20 00:02:54;;;;;;;;;;;22.50;33.30;;;;;;680739;29;1177;-90
2022/04/20 00:03:14;;;;;;;;;;;22.50;34.90;;;;;;680669;29;835;-90
2022/04/20 00:03:35;;;;;;;;;;;22.50;35.60;;;;;;680763;29;1229;-91
2022/04/20 00:03:56;;;;;;;;;;;22.50;34.00;;;;;;677999;29;1449;-90
2022/04/20 00:04:16;;;;;;;;;;;22.50;33.70;;;;;;678185;29;1205;-90
2022/04/20 00:04:37;;;;;;;;;;;22.60;34.90;;;;;;678623;29;791;-90
2022/04/20 00:04:57;;;;;;;;;;;22.50;34.10;;;;;;678113;29;1248;-89
2022/04/20 00:05:18;;;;;;;;;;;22.50;33.50;;;;;;678222;29;1278;-90
2022/04/20 00:05:39;;;;;;;;;;;22.50;33.40;;;;;;678074;29;1961;-90
2022/04/20 00:05:59;;;;;;;;;;;22.60;33.90;;;;;;675389;29;1295;-89
2022/04/20 00:06:20;;;;;;;;;;;22.50;33.50;;;;;;675314;29;1231;-89
2022/04/20 00:06:40;;;;;;;;;;;22.50;33.90;;;;;;675564;29;1037;-89
2022/04/20 00:07:01;;;;;;;;;;;22.50;34.00;;;;;;675860;29;812;-90
2022/04/20 00:07:22;;;;;;;;;;;22.50;33.10;;;;;;678410;29;799;-88
2022/04/20 00:07:43;;;;;;;;;;;22.50;32.70;;;;;;678122;29;1392;-90
2022/04/20 00:08:04;;;;;;;;;;;22.50;33.60;;;;;;678566;29;902;-90
2022/04/20 00:08:24;;;;;;;;;;;22.50;33.30;;;;;;680710;29;1253;-89
2022/04/20 00:08:45;;;;;;;;;;;22.60;33.50;;;;;;680666;29;1355;-90
2022/04/20 00:09:05;;;;;;;;;;;22.50;32.70;;;;;;680675;29;1234;-88
2022/04/20 00:09:26;;;;;;;;;;;22.50;33.30;;;;;;680491;29;1284;-89
2022/04/20 00:09:47;;;;;;;;;;;22.50;32.60;;;;;;680856;29;1309;-89
2022/04/20 00:10:08;;;;;;;;;;;22.50;33.50;;;;;;680567;29;1250;-87
2022/04/20 00:10:29;;;;;;;;;;;22.50;34.60;;;;;;677837;29;1115;-89
2022/04/20 00:10:50;;;;;;;;;;;22.40;32.80;;;;;;677481;29;1333;-90
2022/04/20 00:11:11;;;;;;;;;;;22.50;33.60;;;;;;677456;29;1244;-89
2022/04/20 00:11:31;;;;;;;;;;;22.40;33.60;;;;;;677982;29;1275;-88
2022/04/20 00:11:52;;;;;;;;;;;22.50;34.80;;;;;;677623;29;1297;-89
2022/04/20 00:12:12;;;;;;;;;;;22.50;34.00;;;;;;675756;29;1223;-91
2022/04/20 00:12:33;;;;;;;;;;;22.50;34.50;;;;;;678302;29;922;-88
2022/04/20 00:12:54;;;;;;;;;;;22.50;33.80;;;;;;677692;29;1359;-90
2022/04/20 00:13:14;;;;;;;;;;;22.40;33.00;;;;;;677819;29;878;-90
2022/04/20 00:13:35;;;;;;;;;;;22.40;32.90;;;;;;675571;29;1128;-90
2022/04/20 00:13:56;;;;;;;;;;;22.50;32.90;;;;;;675425;29;1198;-90
2022/04/20 00:14:16;;;;;;;;;;;22.40;32.80;;;;;;672527;29;1164;-90
2022/04/20 00:14:37;;;;;;;;;;;22.40;32.70;;;;;;673297;29;812;-89
2022/04/20 00:14:57;;;;;;;;;;;22.50;32.90;;;;;;675716;29;811;-89
2022/04/20 00:15:18;;;;;;;;;;;22.40;33.10;;;;;;675420;29;1195;-89
2022/04/20 00:15:39;;;;;;;;;;;22.50;32.80;;;;;;675634;29;1400;-89
2022/04/20 00:15:59;;;;;;;;;;;22.40;33.00;;;;;;672877;29;1278;-90
2022/04/20 00:16:20;;;;;;;;;;;22.50;33.00;;;;;;672890;29;1187;-90
2022/04/20 00:16:40;;;;;;;;;;;22.40;33.20;;;;;;670308;29;1229;-88
2022/04/20 00:17:04;;;;;;;;;;;22.50;33.40;;;;;;670794;29;1340;-90
2022/04/20 00:17:24;;;;;;;;;;;22.40;33.30;;;;;;673509;29;938;-89
2022/04/20 00:17:45;;;;;;;;;;;22.40;33.60;;;;;;676084;29;867;-88
2022/04/20 00:18:05;;;;;;;;;;;22.50;34.10;;;;;;675319;29;1222;-90
2022/04/20 00:18:26;;;;;;;;;;;22.40;33.90;;;;;;675981;29;721;-89
2022/04/20 00:18:46;;;;;;;;;;;22.40;34.00;;;;;;675931;29;1147;-90
2022/04/20 00:19:07;;;;;;;;;;;22.50;33.30;;;;;;674698;29;1467;-90
2022/04/20 00:19:28;;;;;;;;;;;22.40;33.10;;;;;;675344;29;1313;-89
2022/04/20 00:19:48;;;;;;;;;;;22.40;32.90;;;;;;675598;29;1214;-87
2022/04/20 00:20:09;;;;;;;;;;;22.40;33.70;;;;;;675412;29;1325;-89
2022/04/20 00:20:30;;;;;;;;;;;22.40;33.90;;;;;;675502;29;1288;-89
2022/04/20 00:20:50;;;;;;;;;;;22.40;32.70;;;;;;675705;29;1206;-86
2022/04/20 00:21:11;;;;;;;;;;;22.40;33.20;;;;;;674934;29;1322;-88
2022/04/20 00:21:31;;;;;;;;;;;22.40;32.90;;;;;;673016;29;931;-88
2022/04/20 00:21:52;;;;;;;;;;;22.40;33.10;;;;;;675522;29;1309;-89
2022/04/20 00:22:13;;;;;;;;;;;22.40;34.70;;;;;;677967;29;776;-87
2022/04/20 00:22:33;;;;;;;;;;;22.40;33.20;;;;;;678205;29;1244;-88
2022/04/20 00:22:54;;;;;;;;;;;22.40;34.20;;;;;;680842;29;874;-88
2022/04/20 00:23:14;;;;;;;;;;;22.40;33.20;;;;;;680410;29;1458;-89
2022/04/20 00:23:35;;;;;;;;;;;22.40;34.30;;;;;;677869;29;1380;-88
2022/04/20 00:23:55;;;;;;;;;;;22.40;33.00;;;;;;677842;29;1234;-89
2022/04/20 00:24:16;;;;;;;;;;;22.40;33.20;;;;;;677865;29;879;-88
2022/04/20 00:24:36;;;;;;;;;;;22.40;33.40;;;;;;677902;29;808;-88
2022/04/20 00:24:57;;;;;;;;;;;22.40;34.60;;;;;;675506;29;1241;-87
2022/04/20 00:25:17;;;;;;;;;;;22.40;33.50;;;;;;677461;29;1338;-87
2022/04/20 00:25:38;;;;;;;;;;;22.40;34.00;;;;;;673051;29;1172;-89
2022/04/20 00:25:59;;;;;;;;;;;22.40;34.00;;;;;;675153;29;1970;-88
2022/04/20 00:26:19;;;;;;;;;;;22.40;33.10;;;;;;675128;29;1560;-88
2022/04/20 00:26:40;;;;;;;;;;;22.40;32.90;;;;;;675392;29;1085;-88
2022/04/20 00:27:00;;;;;;;;;;;22.40;35.80;;;;;;677968;29;1309;-87
2022/04/20 00:27:21;;;;;;;;;;;22.40;33.30;;;;;;675259;29;1129;-88
2022/04/20 00:27:42;;;;;;;;;;;22.40;32.80;;;;;;675221;29;1477;-87
2022/04/20 00:28:02;;;;;;;;;;;22.50;33.40;;;;;;675330;29;1371;-88
2022/04/20 00:28:23;;;;;;;;;;;22.40;33.90;;;;;;672928;29;1327;-89
2022/04/20 00:28:43;;;;;;;;;;;22.50;33.90;;;;;;675012;29;891;-87
2022/04/20 00:29:04;;;;;;;;;;;22.40;34.10;;;;;;672959;29;896;-85
2022/04/20 00:29:24;;;;;;;;;;;22.30;35.90;;;;;;672910;29;1317;-88
2022/04/20 00:29:45;;;;;;;;;;;22.60;34.40;;;;;;672918;29;1360;-86
2022/04/20 00:30:10;;;;;;;;;;;22.40;33.80;;;;;;672994;29;1296;-88
2022/04/20 00:30:31;;;;;;;;;;;22.40;33.50;;;;;;672596;29;1380;-88
2022/04/20 00:30:51;;;;;;;;;;;22.50;33.90;;;;;;670024;29;1306;-89
2022/04/20 00:31:12;;;;;;;;;;;22.40;33.90;;;;;;672746;29;1220;-87
2022/04/20 00:31:32;;;;;;;;;;;22.40;34.70;;;;;;673612;29;789;-87
2022/04/20 00:31:53;;;;;;;;;;;22.40;33.70;;;;;;676105;29;784;-87
2022/04/20 00:32:13;;;;;;;;;;;22.40;34.10;;;;;;675179;29;1303;-89
2022/04/20 00:32:34;;;;;;;;;;;22.40;33.20;;;;;;675456;29;1120;-88
2022/04/20 00:32:55;;;;;;;;;;;22.40;33.80;;;;;;678101;29;867;-88
2022/04/20 00:33:16;;;;;;;;;;;22.40;33.40;;;;;;680408;29;1185;-87
2022/04/20 00:33:37;;;;;;;;;;;22.40;33.50;;;;;;680570;29;1342;-88
2022/04/20 00:33:58;;;;;;;;;;;22.40;33.10;;;;;;680441;29;818;-88
2022/04/20 00:34:18;;;;;;;;;;;22.40;34.40;;;;;;680332;29;1165;-86
2022/04/20 00:34:39;;;;;;;;;;;22.40;33.80;;;;;;677795;29;1337;-86
2022/04/20 00:34:59;;;;;;;;;;;22.40;34.10;;;;;;678005;29;871;-88
2022/04/20 00:35:20;;;;;;;;;;;22.40;33.00;;;;;;678255;29;998;-88
2022/04/20 00:35:42;;;;;;;;;;;22.40;33.80;;;;;;680480;29;886;-85
2022/04/20 00:36:03;;;;;;;;;;;22.40;33.00;;;;;;677984;29;1246;-87
2022/04/20 00:36:24;;;;;;;;;;;22.40;33.30;;;;;;678347;29;1115;-88
2022/04/20 00:36:45;;;;;;;;;;;22.40;33.20;;;;;;680470;29;906;-86
2022/04/20 00:37:05;;;;;;;;;;;22.40;33.10;;;;;;680610;29;850;-85
2022/04/20 00:37:26;;;;;;;;;;;22.40;33.50;;;;;;680484;29;1398;-84
2022/04/20 00:37:47;;;;;;;;;;;22.30;32.90;;;;;;680381;29;1318;-88
2022/04/20 00:38:08;;;;;;;;;;;22.40;33.50;;;;;;680574;29;933;-88
2022/04/20 00:38:29;;;;;;;;;;;22.40;33.00;;;;;;680319;29;1428;-86
2022/04/20 00:38:49;;;;;;;;;;;22.40;33.10;;;;;;680332;29;1183;-87
2022/04/20 00:39:10;;;;;;;;;;;22.40;33.20;;;;;;680418;29;1347;-87
2022/04/20 00:39:30;;;;;;;;;;;22.30;33.40;;;;;;677937;29;1273;-89
2022/04/20 00:39:51;;;;;;;;;;;22.40;33.40;;;;;;677504;29;1418;-85
2022/04/20 00:40:12;;;;;;;;;;;22.40;33.10;;;;;;678140;29;769;-86
2022/04/20 00:40:33;;;;;;;;;;;22.40;33.60;;;;;;680491;29;1094;-87
2022/04/20 00:40:53;;;;;;;;;;;22.40;33.20;;;;;;680556;29;1131;-86
2022/04/20 00:41:14;;;;;;;;;;;22.40;33.70;;;;;;680604;29;1311;-89
2022/04/20 00:41:34;;;;;;;;;;;22.40;33.10;;;;;;677860;29;1339;-88
2022/04/20 00:41:55;;;;;;;;;;;22.30;33.50;;;;;;677689;29;1126;-89
2022/04/20 00:42:16;;;;;;;;;;;22.40;33.20;;;;;;675227;29;1270;-88
2022/04/20 00:42:39;;;;;;;;;;;22.30;33.00;;;;;;675546;29;1206;-88
2022/04/20 00:42:59;;;;;;;;;;;22.40;33.10;;;;;;677441;29;827;-88
2022/04/20 00:43:20;;;;;;;;;;;22.40;33.70;;;;;;674853;29;1387;-88
2022/04/20 00:43:40;;;;;;;;;;;22.40;33.40;;;;;;675686;29;1136;-87
2022/04/20 00:44:02;;;;;;;;;;;22.40;33.50;;;;;;678595;29;792;-87
2022/04/20 00:44:23;;;;;;;;;;;22.40;33.30;;;;;;681170;29;1255;-87
2022/04/20 00:44:43;;;;;;;;;;;22.30;33.00;;;;;;682996;29;866;-88
2022/04/20 00:45:05;;;;;;;;;;;22.40;33.70;;;;;;683191;29;807;-88
2022/04/20 00:45:25;;;;;;;;;;;22.40;33.10;;;;;;682927;29;1334;-88
2022/04/20 00:45:48;;;;;;;;;;;22.30;33.10;;;;;;683217;29;1948;-88
2022/04/20 00:46:09;;;;;;;;;;;22.40;33.00;;;;;;680340;29;1246;-88
2022/04/20 00:46:30;;;;;;;;;;;22.30;32.90;;;;;;677805;29;911;-88
2022/04/20 00:46:52;;;;;;;;;;;22.40;33.10;;;;;;675127;29;1300;-87
2022/04/20 00:47:13;;;;;;;;;;;22.40;33.10;;;;;;675323;29;884;-87
2022/04/20 00:47:37;;;;;;;;;;;22.30;33.10;;;;;;675309;29;978;-87
2022/04/20 00:48:00;;;;;;;;;;;22.40;33.30;;;;;;676170;29;861;-88
2022/04/20 00:48:20;;;;;;;;;;;22.30;33.30;;;;;;679160;29;919;-88
2022/04/20 00:48:41;;;;;;;;;;;22.00;33.00;;;;;;680617;29;1010;-88
2022/04/20 00:49:02;;;;;;;;;;;22.30;33.00;;;;;;680633;29;1037;-87
2022/04/20 00:49:23;;;;;;;;;;;21.70;33.00;;;;;;680572;29;787;-88
2022/04/20 00:49:45;;;;;;;;;;;22.30;33.90;;;;;;680644;29;1280;-88
2022/04/20 00:50:06;;;;;;;;;;;22.40;34.20;;;;;;680496;29;1209;-88
2022/04/20 00:50:27;;;;;;;;;;;22.40;33.90;;;;;;680314;29;1237;-87
2022/04/20 00:50:47;;;;;;;;;;;22.40;34.80;;;;;;678065;29;1421;-88
2022/04/20 00:51:08;;;;;;;;;;;22.40;34.10;;;;;;675214;29;1367;-88
2022/04/20 00:51:29;;;;;;;;;;;22.40;34.00;;;;;;675237;29;1328;-87
2022/04/20 00:51:56;;;;;;;;;;;22.40;34.10;;;;;;675204;29;1382;-86
2022/04/20 00:52:16;;;;;;;;;;;22.40;33.80;;;;;;676315;29;1226;-86
2022/04/20 00:52:37;;;;;;;;;;;22.40;33.80;;;;;;676602;29;1678;-87
2022/04/20 00:52:58;;;;;;;;;;;22.40;34.00;;;;;;678980;29;884;-88
2022/04/20 00:53:19;;;;;;;;;;;22.40;34.60;;;;;;676472;29;1192;-88
2022/04/20 00:53:40;;;;;;;;;;;22.40;34.00;;;;;;672923;29;1223;-89
2022/04/20 00:54:01;;;;;;;;;;;22.40;33.90;;;;;;672952;29;1195;-88
2022/04/20 00:54:21;;;;;;;;;;;22.40;33.90;;;;;;675616;29;848;-88
2022/04/20 00:54:42;;;;;;;;;;;22.40;33.80;;;;;;677908;29;1005;-87
2022/04/20 00:55:03;;;;;;;;;;;22.40;34.10;;;;;;677948;29;1288;-89
2022/04/20 00:55:23;;;;;;;;;;;22.40;34.00;;;;;;678197;29;906;-85
2022/04/20 00:55:44;;;;;;;;;;;22.40;34.30;;;;;;680244;29;1478;-90
2022/04/20 00:56:04;;;;;;;;;;;22.50;34.10;;;;;;678058;29;1271;-89
2022/04/20 00:56:26;;;;;;;;;;;22.40;34.10;;;;;;677982;29;1230;-88
2022/04/20 00:56:46;;;;;;;;;;;22.40;33.90;;;;;;678515;29;890;-88
2022/04/20 00:57:07;;;;;;;;;;;22.40;34.30;;;;;;677927;29;1229;-89
2022/04/20 00:57:27;;;;;;;;;;;22.40;34.10;;;;;;678120;29;799;-87
2022/04/20 00:57:48;;;;;;;;;;;22.40;34.50;;;;;;675777;29;1159;-84
2022/04/20 00:58:08;;;;;;;;;;;22.50;34.40;;;;;;675363;29;1348;-89
2022/04/20 00:58:29;;;;;;;;;;;22.40;35.10;;;;;;675576;29;1365;-89
2022/04/20 00:58:50;;;;;;;;;;;22.40;35.70;;;;;;673205;29;1357;-87
2022/04/20 00:59:12;;;;;;;;;;;22.50;34.60;;;;;;675534;29;939;-88
2022/04/20 00:59:34;;;;;;;;;;;22.50;33.90;;;;;;676028;29;855;-89
2022/04/20 00:59:56;;;;;;;;;;;22.40;34.00;;;;;;676644;29;1290;-89
2022/04/20 01:00:17;;;;;;;;;;;22.50;33.90;;;;;;676304;29;1347;-88
2022/04/20 01:00:37;;;;;;;;;;;22.50;34.40;;;;;;678719;29;903;-90
2022/04/20 01:00:58;;;;;;;;;;;22.50;34.00;;;;;;680368;29;1328;-89
2022/04/20 01:01:19;;;;;;;;;;;22.50;33.90;;;;;;677480;29;1190;-89
2022/04/20 01:01:40;;;;;;;;;;;22.50;34.30;;;;;;678325;29;859;-88
2022/04/20 01:02:01;;;;;;;;;;;22.40;34.10;;;;;;680699;29;1226;-90
2022/04/20 01:02:22;;;;;;;;;;;22.50;33.90;;;;;;680464;29;1170;-89
2022/04/20 01:02:43;;;;;;;;;;;20.80;33.00;;;;;;677877;29;1269;-88
2022/04/20 01:03:04;;;;;;;;;;;22.50;34.20;;;;;;678063;29;983;-88
2022/04/20 01:03:25;;;;;;;;;;;22.50;34.00;;;;;;677773;29;1191;-89
2022/04/20 01:03:46;;;;;;;;;;;22.50;34.10;;;;;;678939;29;1289;-89
2022/04/20 01:04:06;;;;;;;;;;;22.50;34.80;;;;;;681631;29;1300;-89
2022/04/20 01:04:27;;;;;;;;;;;22.50;34.40;;;;;;683747;29;1193;-89
2022/04/20 01:04:49;;;;;;;;;;;22.50;34.00;;;;;;683622;29;1447;-88
2022/04/20 01:05:09;;;;;;;;;;;22.50;33.90;;;;;;681505;29;1095;-87
2022/04/20 01:05:31;;;;;;;;;;;22.50;34.30;;;;;;677552;29;1197;-90
2022/04/20 01:05:51;;;;;;;;;;;22.50;33.90;;;;;;680236;29;1872;-89
2022/04/20 01:06:12;;;;;;;;;;;22.50;34.10;;;;;;678245;29;1021;-89
2022/04/20 01:06:33;;;;;;;;;;;22.50;33.80;;;;;;681544;29;1021;-87
2022/04/20 01:06:54;;;;;;;;;;;22.50;33.70;;;;;;683040;29;1041;-88
2022/04/20 01:07:15;;;;;;;;;;;22.50;34.30;;;;;;683211;29;1186;-90
2022/04/20 01:07:40;;;;;;;;;;;22.50;34.00;;;;;;684211;29;1398;-88
2022/04/20 01:08:00;;;;;;;;;;;22.50;34.00;;;;;;683454;29;1241;-90
2022/04/20 01:08:21;;;;;;;;;;;22.50;34.10;;;;;;680436;29;1315;-89
2022/04/20 01:08:43;;;;;;;;;;;22.50;34.30;;;;;;680956;29;951;-90
2022/04/20 01:09:04;;;;;;;;;;;22.50;33.80;;;;;;677833;29;1216;-90
2022/04/20 01:09:24;;;;;;;;;;;22.50;34.50;;;;;;677533;29;1174;-88
2022/04/20 01:09:45;;;;;;;;;;;22.50;33.80;;;;;;675720;29;1201;-86
2022/04/20 01:10:06;;;;;;;;;;;22.50;34.00;;;;;;677886;29;876;-89
2022/04/20 01:10:26;;;;;;;;;;;22.50;33.70;;;;;;678859;29;1104;-88
2022/04/20 01:10:47;;;;;;;;;;;22.50;33.60;;;;;;678614;29;1001;-89
2022/04/20 01:11:07;;;;;;;;;;;22.50;33.70;;;;;;678114;29;1299;-89
2022/04/20 01:11:28;;;;;;;;;;;22.50;33.90;;;;;;678749;29;1213;-88
2022/04/20 01:11:50;;;;;;;;;;;22.50;34.30;;;;;;681083;29;1210;-88
2022/04/20 01:12:12;;;;;;;;;;;22.50;33.90;;;;;;681096;29;1269;-89
2022/04/20 01:12:33;;;;;;;;;;;22.50;33.50;;;;;;678520;29;1348;-86
2022/04/20 01:12:53;;;;;;;;;;;22.50;33.50;;;;;;678404;29;1300;-90
2022/04/20 01:13:14;;;;;;;;;;;22.60;35.00;;;;;;678243;29;1185;-88
2022/04/20 01:13:35;;;;;;;;;;;22.50;34.00;;;;;;675865;29;1183;-87
2022/04/20 01:13:55;;;;;;;;;;;22.50;33.80;;;;;;676250;29;1022;-88
2022/04/20 01:14:16;;;;;;;;;;;22.50;33.70;;;;;;678502;29;1135;-89
2022/04/20 01:14:36;;;;;;;;;;;22.50;33.70;;;;;;680448;29;1473;-88
2022/04/20 01:14:57;;;;;;;;;;;22.50;33.90;;;;;;680902;29;823;-87
2022/04/20 01:15:18;;;;;;;;;;;22.50;33.90;;;;;;678369;29;1341;-88
2022/04/20 01:15:39;;;;;;;;;;;22.50;33.90;;;;;;680902;29;909;-86
2022/04/20 01:16:00;;;;;;;;;;;22.50;33.70;;;;;;680890;29;1322;-87
2022/04/20 01:16:20;;;;;;;;;;;22.50;33.70;;;;;;678153;29;1293;-88
2022/04/20 01:16:43;;;;;;;;;;;22.50;34.10;;;;;;675703;29;1217;-88
2022/04/20 01:17:04;;;;;;;;;;;22.50;34.50;;;;;;673018;29;984;-89
2022/04/20 01:17:25;;;;;;;;;;;22.40;33.60;;;;;;672981;29;1061;-87
2022/04/20 01:17:45;;;;;;;;;;;22.50;33.40;;;;;;673637;29;1002;-88
2022/04/20 01:18:10;;;;;;;;;;;22.40;33.10;;;;;;676136;29;1119;-87
2022/04/20 01:18:30;;;;;;;;;;;22.50;33.30;;;;;;678881;29;1160;-88
2022/04/20 01:18:53;;;;;;;;;;;22.50;33.20;;;;;;680826;29;852;-88
2022/04/20 01:19:14;;;;;;;;;;;22.50;33.40;;;;;;681045;29;902;-86
2022/04/20 01:19:35;;;;;;;;;;;22.40;32.90;;;;;;680844;29;1335;-87
2022/04/20 01:19:57;;;;;;;;;;;22.50;33.00;;;;;;682075;29;811;-87
2022/04/20 01:20:18;;;;;;;;;;;22.40;33.60;;;;;;683145;29;1147;-85
2022/04/20 01:20:38;;;;;;;;;;;22.50;33.70;;;;;;680888;29;1459;-86
2022/04/20 01:21:00;;;;;;;;;;;22.50;33.00;;;;;;681014;29;804;-88
2022/04/20 01:21:23;;;;;;;;;;;22.40;33.00;;;;;;678073;29;1241;-86
2022/04/20 01:21:43;;;;;;;;;;;22.40;34.40;;;;;;675441;29;1153;-87
2022/04/20 01:22:04;;;;;;;;;;;22.40;33.00;;;;;;672677;29;1219;-88
2022/04/20 01:22:25;;;;;;;;;;;22.50;33.60;;;;;;673766;29;1045;-87
2022/04/20 01:22:46;;;;;;;;;;;22.40;32.80;;;;;;675778;29;803;-86
2022/04/20 01:23:06;;;;;;;;;;;22.40;32.70;;;;;;673677;29;1354;-87
2022/04/20 01:23:27;;;;;;;;;;;22.40;32.80;;;;;;673379;29;1332;-88
2022/04/20 01:23:48;;;;;;;;;;;22.40;34.10;;;;;;675737;29;1012;-88
2022/04/20 01:24:08;;;;;;;;;;;22.40;32.80;;;;;;675625;29;1207;-88
2022/04/20 01:24:29;;;;;;;;;;;22.40;32.80;;;;;;675527;29;1203;-89
2022/04/20 01:24:49;;;;;;;;;;;22.40;32.80;;;;;;675832;29;911;-88
2022/04/20 01:25:10;;;;;;;;;;;22.40;33.10;;;;;;678299;29;828;-87
2022/04/20 01:25:31;;;;;;;;;;;22.40;33.50;;;;;;678276;29;1226;-89
2022/04/20 01:25:52;;;;;;;;;;;22.40;33.70;;;;;;675853;29;1915;-88
2022/04/20 01:26:13;;;;;;;;;;;22.40;33.80;;;;;;678547;29;1377;-89
2022/04/20 01:26:34;;;;;;;;;;;22.40;34.00;;;;;;680935;29;795;-89
2022/04/20 01:26:56;;;;;;;;;;;22.40;33.20;;;;;;681039;29;784;-88
2022/04/20 01:27:17;;;;;;;;;;;22.40;33.20;;;;;;680812;29;870;-88
2022/04/20 01:27:39;;;;;;;;;;;22.40;33.10;;;;;;678693;29;1243;-88
2022/04/20 01:28:01;;;;;;;;;;;22.40;33.00;;;;;;681024;29;883;-89
2022/04/20 01:28:21;;;;;;;;;;;22.40;33.30;;;;;;678180;29;1089;-85
2022/04/20 01:28:43;;;;;;;;;;;22.40;33.90;;;;;;678054;29;1127;-90
2022/04/20 01:29:05;;;;;;;;;;;22.00;32.70;;;;;;678205;29;1493;-86
2022/04/20 01:29:26;;;;;;;;;;;22.40;33.30;;;;;;678811;29;1401;-87
2022/04/20 01:29:47;;;;;;;;;;;22.40;33.40;;;;;;678028;29;1281;-87
2022/04/20 01:30:08;;;;;;;;;;;22.50;33.20;;;;;;679048;29;1112;-88
2022/04/20 01:30:29;;;;;;;;;;;22.40;33.00;;;;;;678077;29;1317;-87
2022/04/20 01:30:50;;;;;;;;;;;22.40;33.60;;;;;;678336;29;850;-89
2022/04/20 01:31:14;;;;;;;;;;;22.40;33.30;;;;;;674921;29;1292;-88
2022/04/20 01:31:35;;;;;;;;;;;22.40;32.90;;;;;;673558;29;1351;-88
2022/04/20 01:31:56;;;;;;;;;;;22.40;33.60;;;;;;676245;29;1228;-89
2022/04/20 01:32:17;;;;;;;;;;;22.40;33.00;;;;;;676408;29;879;-88
2022/04/20 01:32:37;;;;;;;;;;;22.40;33.00;;;;;;678233;29;1390;-87
2022/04/20 01:32:58;;;;;;;;;;;22.40;33.50;;;;;;677965;29;1404;-88
2022/04/20 01:33:18;;;;;;;;;;;22.40;33.60;;;;;;678177;29;1232;-87
2022/04/20 01:33:40;;;;;;;;;;;22.40;33.00;;;;;;678266;29;839;-87
2022/04/20 01:34:01;;;;;;;;;;;22.30;33.50;;;;;;676001;29;1307;-87
2022/04/20 01:34:22;;;;;;;;;;;22.50;34.10;;;;;;675092;29;1385;-88
2022/04/20 01:34:42;;;;;;;;;;;22.40;33.70;;;;;;673380;29;1084;-88
2022/04/20 01:35:03;;;;;;;;;;;22.40;33.20;;;;;;676150;29;1254;-88
2022/04/20 01:35:24;;;;;;;;;;;21.50;33.90;;;;;;675515;29;1288;-88
2022/04/20 01:35:44;;;;;;;;;;;22.30;34.40;;;;;;675607;29;1196;-89
2022/04/20 01:36:05;;;;;;;;;;;22.40;33.70;;;;;;675546;29;1269;-87
2022/04/20 01:36:25;;;;;;;;;;;22.40;34.50;;;;;;673380;29;1325;-89
2022/04/20 01:36:46;;;;;;;;;;;22.40;33.10;;;;;;672631;29;1277;-88
2022/04/20 01:37:07;;;;;;;;;;;22.30;32.90;;;;;;670862;29;887;-88
2022/04/20 01:37:28;;;;;;;;;;;22.30;33.30;;;;;;672992;29;1347;-88
2022/04/20 01:37:49;;;;;;;;;;;22.30;33.90;;;;;;673384;29;1309;-87
2022/04/20 01:38:10;;;;;;;;;;;22.30;33.00;;;;;;673417;29;1121;-89
2022/04/20 01:38:31;;;;;;;;;;;22.30;33.30;;;;;;673438;29;1148;-87
2022/04/20 01:38:52;;;;;;;;;;;22.30;33.40;;;;;;675621;29;832;-87
2022/04/20 01:39:13;;;;;;;;;;;22.30;34.10;;;;;;675535;29;1209;-88
2022/04/20 01:39:33;;;;;;;;;;;22.30;33.10;;;;;;676091;29;891;-89
2022/04/20 01:39:54;;;;;;;;;;;22.30;33.00;;;;;;678739;29;792;-89
2022/04/20 01:40:15;;;;;;;;;;;22.30;33.00;;;;;;678634;29;1297;-88
2022/04/20 01:40:36;;;;;;;;;;;22.30;33.50;;;;;;678146;29;939;-87
2022/04/20 01:40:56;;;;;;;;;;;22.30;33.00;;;;;;678342;29;1175;-86
2022/04/20 01:41:17;;;;;;;;;;;22.30;33.00;;;;;;675570;29;1391;-84
2022/04/20 01:41:37;;;;;;;;;;;22.30;33.60;;;;;;675624;29;1227;-85
2022/04/20 01:41:58;;;;;;;;;;;22.30;33.30;;;;;;675730;29;1129;-85
2022/04/20 01:42:18;;;;;;;;;;;22.30;32.90;;;;;;678229;29;1216;-87
2022/04/20 01:42:39;;;;;;;;;;;22.30;35.50;;;;;;677719;29;1361;-87
2022/04/20 01:42:59;;;;;;;;;;;22.30;33.40;;;;;;673190;29;1304;-87
2022/04/20 01:43:20;;;;;;;;;;;22.30;33.20;;;;;;678254;29;1186;-84
2022/04/20 01:43:41;;;;;;;;;;;22.30;34.20;;;;;;680483;29;791;-84
2022/04/20 01:44:01;;;;;;;;;;;22.40;34.60;;;;;;678098;29;871;-84
2022/04/20 01:44:22;;;;;;;;;;;22.30;33.70;;;;;;675063;29;1364;-85
2022/04/20 01:44:42;;;;;;;;;;;22.30;34.80;;;;;;675594;29;1223;-83
2022/04/20 01:45:03;;;;;;;;;;;22.30;33.80;;;;;;675878;29;1179;-84
2022/04/20 01:45:24;;;;;;;;;;;22.30;33.10;;;;;;678148;29;780;-86
2022/04/20 01:45:44;;;;;;;;;;;22.30;32.90;;;;;;677768;29;1953;-85
2022/04/20 01:46:05;;;;;;;;;;;22.40;33.50;;;;;;675820;29;792;-86
2022/04/20 01:46:25;;;;;;;;;;;22.30;33.40;;;;;;675642;29;1188;-83
2022/04/20 01:46:46;;;;;;;;;;;22.30;33.10;;;;;;678151;29;804;-86
2022/04/20 01:47:06;;;;;;;;;;;22.30;33.20;;;;;;678115;29;1303;-84
2022/04/20 01:47:27;;;;;;;;;;;22.30;33.20;;;;;;678413;29;860;-86
2022/04/20 01:47:47;;;;;;;;;;;22.30;33.30;;;;;;680777;29;858;-87
2022/04/20 01:48:08;;;;;;;;;;;22.30;33.40;;;;;;680648;29;1172;-86
2022/04/20 01:48:28;;;;;;;;;;;22.30;33.40;;;;;;678060;29;1235;-86
2022/04/20 01:48:49;;;;;;;;;;;22.30;33.20;;;;;;675716;29;1329;-86
2022/04/20 01:49:10;;;;;;;;;;;22.30;33.00;;;;;;677950;29;1434;-89
2022/04/20 01:49:30;;;;;;;;;;;22.30;33.10;;;;;;678344;29;919;-87
2022/04/20 01:49:51;;;;;;;;;;;22.30;33.30;;;;;;678163;29;852;-86
2022/04/20 01:50:11;;;;;;;;;;;22.30;33.60;;;;;;677990;29;1174;-86
2022/04/20 01:50:32;;;;;;;;;;;22.30;33.60;;;;;;680904;29;1198;-83
2022/04/20 01:51:46;;;;;;;;;;;22.30;33.10;;;;;;683471;29;621;-86
2022/04/20 01:52:07;;;;;;;;;;;22.30;33.10;;;;;;680739;29;1242;-86
2022/04/20 01:52:28;;;;;;;;;;;22.30;33.50;;;;;;678143;29;1228;-85
2022/04/20 01:52:49;;;;;;;;;;;22.30;33.00;;;;;;674810;29;1231;-87
2022/04/20 01:53:10;;;;;;;;;;;22.30;33.20;;;;;;675314;29;1458;-86
2022/04/20 01:53:33;;;;;;;;;;;22.30;33.90;;;;;;675658;29;942;-83
2022/04/20 01:53:54;;;;;;;;;;;22.30;33.10;;;;;;676230;29;1202;-85
2022/04/20 01:54:14;;;;;;;;;;;22.30;33.30;;;;;;678882;29;840;-84
2022/04/20 01:54:35;;;;;;;;;;;22.30;33.30;;;;;;681558;29;1404;-86
2022/04/20 01:54:55;;;;;;;;;;;22.30;33.30;;;;;;680103;29;1191;-82
2022/04/20 01:55:16;;;;;;;;;;;22.30;33.10;;;;;;675395;29;1069;-84
2022/04/20 01:55:37;;;;;;;;;;;22.30;33.40;;;;;;673276;29;1261;-87
2022/04/20 01:56:03;;;;;;;;;;;22.30;34.00;;;;;;675577;29;918;-81
2022/04/20 01:56:23;;;;;;;;;;;22.30;33.10;;;;;;675471;29;1179;-86
2022/04/20 01:56:46;;;;;;;;;;;22.30;33.30;;;;;;673862;29;1295;-86
2022/04/20 01:57:07;;;;;;;;;;;22.30;33.10;;;;;;676944;29;835;-86
2022/04/20 01:57:27;;;;;;;;;;;22.30;33.20;;;;;;679503;29;1325;-86
2022/04/20 01:57:48;;;;;;;;;;;22.30;33.10;;;;;;680707;29;815;-83
2022/04/20 01:58:08;;;;;;;;;;;22.30;33.50;;;;;;678132;29;819;-84
2022/04/20 01:58:29;;;;;;;;;;;22.30;33.50;;;;;;678495;29;1099;-83
2022/04/20 01:58:50;;;;;;;;;;;22.30;33.10;;;;;;680715;29;935;-83
2022/04/20 01:59:10;;;;;;;;;;;22.30;33.30;;;;;;677980;29;1323;-83
2022/04/20 01:59:34;;;;;;;;;;;21.70;33.10;;;;;;678279;29;863;-83
2022/04/20 01:59:54;;;;;;;;;;;22.30;33.00;;;;;;678601;29;1478;-83
2022/04/20 02:00:18;;;;;;;;;;;22.30;33.00;;;;;;677983;29;1320;-84
2022/04/20 02:00:38;;;;;;;;;;;22.30;33.10;;;;;;678207;29;855;-83
2022/04/20 02:00:59;;;;;;;;;;;22.30;33.50;;;;;;676276;29;938;-82
2022/04/20 02:02:40;;;;;;;;;;;22.30;33.00;;;;;;680924;29;590;-83
2022/04/20 02:03:01;;;;;;;;;;;22.30;33.10;;;;;;683648;29;866;-84
2022/04/20 02:03:21;;;;;;;;;;;21.80;32.90;;;;;;683493;29;823;-83
2022/04/20 02:03:42;;;;;;;;;;;22.30;33.10;;;;;;683562;29;898;-85
2022/04/20 02:04:02;;;;;;;;;;;22.30;33.20;;;;;;680608;29;1321;-83
2022/04/20 02:04:23;;;;;;;;;;;22.20;33.40;;;;;;680417;29;1221;-83
2022/04/20 02:04:43;;;;;;;;;;;22.30;34.10;;;;;;680783;29;926;-85
2022/04/20 02:05:05;;;;;;;;;;;22.30;33.10;;;;;;678050;29;1187;-87
2022/04/20 02:05:25;;;;;;;;;;;22.30;33.10;;;;;;675308;29;1221;-85
2022/04/20 02:05:46;;;;;;;;;;;22.30;33.20;;;;;;675485;29;1899;-86
2022/04/20 02:06:10;;;;;;;;;;;22.20;33.00;;;;;;675984;29;891;-84
2022/04/20 02:06:33;;;;;;;;;;;22.30;33.00;;;;;;678114;29;1263;-85
2022/04/20 02:06:55;;;;;;;;;;;22.30;33.00;;;;;;679358;29;803;-82
2022/04/20 02:07:16;;;;;;;;;;;22.30;33.90;;;;;;678097;29;1301;-82
2022/04/20 02:07:37;;;;;;;;;;;22.30;33.70;;;;;;675525;29;1241;-85
2022/04/20 02:07:57;;;;;;;;;;;22.30;33.00;;;;;;675541;29;1018;-85
2022/04/20 02:08:18;;;;;;;;;;;22.20;33.00;;;;;;673601;29;1502;-85